Time;durP1;ratioP1;P1;durP2;ratioP2;P2;SDS_P1;SDS_P2;PMS_P1;PMS_P2;Temp;Humidity;BMP_temperature;BMP_pressure;BME280_temperature;BME280_humidity;BME280_pressure;Samples;Min_cycle;Max_cycle;Signal;HPM_P1;HPM_P2
2022/03/11 00:00:45;;;;;;;9.30;5.18;;;4.90;99.90;;;;;;6268036;22;20069;-56
2022/03/11 00:03:12;;;;;;;9.98;6.07;;;4.90;99.90;;;;;;6266714;22;20019;-57
2022/03/11 00:05:39;;;;;;;8.45;6.03;;;4.80;99.90;;;;;;6267376;22;20058;-56
2022/03/11 00:08:05;;;;;;;7.70;4.75;;;4.80;99.90;;;;;;6266571;22;20390;-62
2022/03/11 00:10:31;;;;;;;7.75;5.00;;;4.80;99.90;;;;;;6266996;22;20015;-56
2022/03/11 00:12:57;;;;;;;7.75;4.97;;;4.70;99.90;;;;;;6266995;22;20043;-56
2022/03/11 00:15:23;;;;;;;8.73;5.35;;;4.70;99.90;;;;;;6266755;22;20058;-56
2022/03/11 00:17:49;;;;;;;6.30;4.65;;;4.70;99.90;;;;;;6267907;22;20019;-56
2022/03/11 00:20:20;;;;;;;7.82;4.32;;;4.70;99.90;;;;;;6267319;22;20055;-56
2022/03/11 00:22:47;;;;;;;8.23;5.10;;;4.70;99.90;;;;;;6267746;22;20091;-56
2022/03/11 00:25:16;;;;;;;9.82;5.60;;;4.60;99.90;;;;;;6266688;22;20342;-59
2022/03/11 00:27:42;;;;;;;11.43;5.82;;;4.60;99.90;;;;;;6267187;22;20085;-58
2022/03/11 00:30:09;;;;;;;9.20;5.20;;;4.60;99.90;;;;;;6266866;22;20019;-57
2022/03/11 00:32:35;;;;;;;8.75;4.50;;;4.60;99.90;;;;;;6267820;22;20029;-56
2022/03/11 00:35:01;;;;;;;9.23;5.80;;;4.60;99.90;;;;;;6267650;22;20032;-57
2022/03/11 00:37:27;;;;;;;10.63;5.53;;;4.60;99.90;;;;;;6266740;22;20015;-57
2022/03/11 00:39:52;;;;;;;10.23;6.47;;;4.60;99.90;;;;;;6267114;22;20016;-56
2022/03/11 00:42:18;;;;;;;9.43;6.60;;;4.60;99.90;;;;;;6266686;22;20378;-56
2022/03/11 00:44:44;;;;;;;11.10;6.60;;;4.60;99.90;;;;;;6266859;22;20102;-56
2022/03/11 00:47:10;;;;;;;8.55;5.30;;;4.50;99.90;;;;;;6267137;22;20018;-57
2022/03/11 00:49:37;;;;;;;11.00;5.93;;;4.50;99.90;;;;;;6266833;22;20454;-57
2022/03/11 00:52:03;;;;;;;9.80;5.45;;;4.50;99.90;;;;;;6268107;22;20022;-57
2022/03/11 00:54:29;;;;;;;41.25;7.10;;;4.40;99.90;;;;;;6266557;22;20732;-56
2022/03/11 00:56:55;;;;;;;10.77;6.75;;;4.40;99.90;;;;;;6266856;22;20073;-56
2022/03/11 00:59:21;;;;;;;12.07;6.28;;;4.40;99.90;;;;;;6267141;22;20043;-56
2022/03/11 01:01:46;;;;;;;10.80;6.53;;;4.40;99.90;;;;;;6266998;22;20410;-60
2022/03/11 01:04:12;;;;;;;9.70;6.13;;;4.40;99.90;;;;;;6266725;22;20023;-57
2022/03/11 01:06:38;;;;;;;12.15;6.00;;;4.40;99.90;;;;;;6239997;22;20024;-57
2022/03/11 01:09:04;;;;;;;8.85;6.13;;;4.30;99.90;;;;;;6267175;22;20027;-57
2022/03/11 01:11:30;;;;;;;9.25;5.93;;;4.50;99.90;;;;;;6266784;22;20016;-56
2022/03/11 01:13:56;;;;;;;11.40;6.32;;;4.20;99.90;;;;;;6266965;22;20107;-56
2022/03/11 01:16:23;;;;;;;14.15;6.07;;;4.20;99.90;;;;;;6267510;22;20023;-57
2022/03/11 01:18:49;;;;;;;10.60;6.05;;;4.10;99.90;;;;;;6267107;22;20414;-57
2022/03/11 01:21:15;;;;;;;16.17;7.13;;;4.10;99.90;;;;;;6267028;22;20023;-56
2022/03/11 01:23:40;;;;;;;12.13;6.93;;;4.30;99.90;;;;;;6239883;22;20342;-56
2022/03/11 01:26:06;;;;;;;11.98;6.53;;;4.00;99.90;;;;;;6266124;22;20073;-56
2022/03/11 01:28:32;;;;;;;11.75;6.80;;;4.00;99.90;;;;;;6238541;22;20027;-56
2022/03/11 01:30:58;;;;;;;15.02;7.45;;;3.90;99.90;;;;;;6266972;22;20012;-57
2022/03/11 01:33:23;;;;;;;15.52;9.00;;;3.90;99.90;;;;;;6267088;22;20136;-56
2022/03/11 01:35:49;;;;;;;10.60;6.75;;;3.80;99.90;;;;;;6266486;22;20278;-57
2022/03/11 01:38:15;;;;;;;14.70;7.72;;;3.80;99.90;;;;;;6266280;22;20020;-59
2022/03/11 01:40:41;;;;;;;13.90;8.50;;;3.80;99.90;;;;;;6267209;22;20468;-56
2022/03/11 01:43:17;;;;;;;10.25;8.18;;;3.80;99.90;;;;;;6267412;22;20028;-57
2022/03/11 01:45:44;;;;;;;10.88;7.22;;;3.70;99.90;;;;;;6266904;22;20015;-57
2022/03/11 01:48:10;;;;;;;15.95;8.50;;;4.40;99.90;;;;;;6266346;22;20062;-56
2022/03/11 01:50:40;;;;;;;14.88;7.75;;;3.70;99.90;;;;;;6267325;22;20026;-58
2022/03/11 01:53:08;;;;;;;17.23;8.73;;;3.70;99.90;;;;;;6267264;22;20019;-56
2022/03/11 01:55:34;;;;;;;16.58;8.95;;;3.70;99.90;;;;;;6266386;22;20030;-55
2022/03/11 01:58:00;;;;;;;15.90;8.10;;;3.70;99.90;;;;;;6266856;22;20026;-58
2022/03/11 02:00:26;;;;;;;13.10;8.25;;;3.60;99.90;;;;;;6266031;22;20031;-59
2022/03/11 02:02:52;;;;;;;14.15;8.57;;;3.60;99.90;;;;;;6237767;22;20016;-56
2022/03/11 02:05:18;;;;;;;18.30;9.10;;;3.60;99.90;;;;;;6266196;22;20086;-57
2022/03/11 02:07:43;;;;;;;16.67;9.38;;;3.60;99.90;;;;;;6238397;22;20362;-56
2022/03/11 02:10:09;;;;;;;14.57;9.45;;;3.70;99.90;;;;;;6266130;22;20024;-59
2022/03/11 02:12:35;;;;;;;19.45;10.45;;;3.60;99.90;;;;;;6266836;22;20023;-57
2022/03/11 02:15:05;;;;;;;20.30;11.60;;;3.60;99.90;;;;;;6267382;22;20024;-58
2022/03/11 02:17:31;;;;;;;18.42;10.00;;;3.60;99.90;;;;;;6266993;22;20015;-59
2022/03/11 02:19:57;;;;;;;18.85;11.15;;;3.60;99.90;;;;;;6266066;22;20450;-58
2022/03/11 02:22:25;;;;;;;19.30;10.07;;;3.60;99.90;;;;;;6266721;22;20011;-56
2022/03/11 02:24:53;;;;;;;17.38;12.00;;;3.60;99.90;;;;;;6266187;22;20023;-60
2022/03/11 02:27:18;;;;;;;15.85;10.77;;;4.10;99.90;;;;;;6266500;22;20055;-58
2022/03/11 02:29:44;;;;;;;20.52;10.27;;;3.60;99.90;;;;;;6265960;22;20030;-58
2022/03/11 02:32:10;;;;;;;18.10;11.07;;;3.60;99.90;;;;;;6265336;22;20026;-56
2022/03/11 02:34:40;;;;;;;19.80;11.02;;;3.60;99.90;;;;;;6264707;22;20024;-58
2022/03/11 02:37:06;;;;;;;18.50;10.85;;;3.60;99.90;;;;;;6265639;22;20315;-57
2022/03/11 02:39:32;;;;;;;23.30;12.65;;;3.60;99.90;;;;;;6265956;22;20058;-56
2022/03/11 02:42:00;;;;;;;19.83;11.10;;;3.60;99.90;;;;;;6239170;22;20051;-60
2022/03/11 02:44:29;;;;;;;19.35;11.13;;;3.50;99.90;;;;;;6266766;22;20019;-58
2022/03/11 02:46:55;;;;;;;16.73;10.68;;;3.50;99.90;;;;;;6266192;22;20019;-58
2022/03/11 02:49:21;;;;;;;37.42;11.60;;;3.50;99.90;;;;;;6265477;22;20043;-61
2022/03/11 02:51:46;;;;;;;18.13;10.82;;;3.40;99.90;;;;;;6265978;22;20027;-57
2022/03/11 02:54:12;;;;;;;17.20;11.45;;;3.40;99.90;;;;;;6265020;22;20020;-56
2022/03/11 02:56:38;;;;;;;21.67;11.63;;;3.40;99.90;;;;;;6266535;22;20020;-56
2022/03/11 02:59:03;;;;;;;21.80;11.43;;;3.40;99.90;;;;;;6266877;22;20038;-56
2022/03/11 03:01:29;;;;;;;21.63;13.13;;;3.40;99.90;;;;;;6265554;22;20020;-56
2022/03/11 03:03:54;;;;;;;20.88;11.20;;;3.40;99.90;;;;;;6266188;22;20015;-56
2022/03/11 03:06:20;;;;;;;23.55;12.95;;;3.40;99.90;;;;;;6266507;22;20350;-56
2022/03/11 03:08:46;;;;;;;21.15;12.88;;;3.30;99.90;;;;;;6266702;22;20016;-56
2022/03/11 03:11:12;;;;;;;25.48;12.43;;;3.30;99.90;;;;;;6265635;22;20330;-56
2022/03/11 03:13:37;;;;;;;24.52;13.35;;;3.30;99.90;;;;;;6266188;22;20363;-56
2022/03/11 03:16:03;;;;;;;19.23;12.40;;;3.20;99.90;;;;;;6266786;22;20023;-56
2022/03/11 03:18:30;;;;;;;22.83;13.00;;;3.20;99.90;;;;;;6266051;22;20529;-56
2022/03/11 03:20:55;;;;;;;19.77;12.18;;;3.20;99.90;;;;;;6238078;22;20462;-55
2022/03/11 03:23:24;;;;;;;23.98;11.88;;;3.20;99.90;;;;;;6265572;22;20512;-57
2022/03/11 03:25:50;;;;;;;22.70;12.80;;;3.20;99.90;;;;;;6265474;22;20513;-57
2022/03/11 03:28:16;;;;;;;32.72;13.52;;;3.10;99.90;;;;;;6265506;22;20026;-56
2022/03/11 03:30:41;;;;;;;23.67;13.07;;;3.10;99.90;;;;;;6265737;22;20533;-56
2022/03/11 03:33:07;;;;;;;24.05;13.55;;;3.10;99.90;;;;;;6265625;22;20030;-56
2022/03/11 03:35:34;;;;;;;29.50;13.35;;;3.10;99.90;;;;;;6266101;22;20077;-55
2022/03/11 03:37:59;;;;;;;22.13;11.77;;;3.00;99.90;;;;;;6266694;22;20016;-58
2022/03/11 03:40:25;;;;;;;21.08;12.80;;;3.00;99.90;;;;;;6265911;22;20400;-58
2022/03/11 03:42:51;;;;;;;23.52;12.75;;;3.00;99.90;;;;;;6266389;22;20016;-56
2022/03/11 03:45:17;;;;;;;22.23;13.88;;;3.20;99.90;;;;;;6264252;22;20154;-58
2022/03/11 03:47:42;;;;;;;24.05;14.15;;;3.00;99.90;;;;;;6266721;22;20019;-66
2022/03/11 03:50:09;;;;;;;24.15;13.75;;;3.00;99.90;;;;;;6266548;22;20019;-56
2022/03/11 03:52:34;;;;;;;23.63;13.77;;;3.00;99.90;;;;;;6267483;22;20434;-59
2022/03/11 03:55:00;;;;;;;22.80;15.07;;;2.90;99.90;;;;;;6268458;22;20020;-64
2022/03/11 03:57:27;;;;;;;20.20;12.32;;;2.90;99.90;;;;;;6267679;22;20494;-66
2022/03/11 03:59:53;;;;;;;21.17;12.43;;;2.90;99.90;;;;;;6266818;22;20024;-61
2022/03/11 04:02:19;;;;;;;23.33;12.93;;;2.90;99.90;;;;;;6266984;22;20034;-62
2022/03/11 04:04:45;;;;;;;23.15;14.02;;;2.80;99.90;;;;;;6267591;22;20025;-67
2022/03/11 04:07:11;;;;;;;24.25;12.57;;;2.80;99.90;;;;;;6267699;22;20016;-56
2022/03/11 04:09:37;;;;;;;24.65;13.25;;;2.80;99.90;;;;;;6239734;22;20050;-56
2022/03/11 04:12:03;;;;;;;20.13;13.10;;;2.70;99.90;;;;;;6268229;22;20019;-56
2022/03/11 04:14:29;;;;;;;25.27;13.68;;;2.70;99.90;;;;;;6267689;22;20130;-57
2022/03/11 04:16:55;;;;;;;21.23;11.68;;;3.80;99.90;;;;;;6267252;22;20094;-57
2022/03/11 04:19:21;;;;;;;23.08;13.63;;;2.60;99.90;;;;;;6267263;22;20023;-56
2022/03/11 04:21:46;;;;;;;22.60;14.23;;;2.60;99.90;;;;;;6267555;22;20019;-56
2022/03/11 04:24:15;;;;;;;25.83;12.63;;;2.60;99.90;;;;;;6266886;22;20046;-56
2022/03/11 04:26:44;;;;;;;25.20;13.45;;;2.70;99.90;;;;;;6267452;22;20347;-56
2022/03/11 04:29:11;;;;;;;25.20;13.68;;;2.50;99.90;;;;;;6267810;22;20020;-57
2022/03/11 04:31:37;;;;;;;23.48;13.13;;;2.50;99.90;;;;;;6240561;22;20066;-57
2022/03/11 04:34:04;;;;;;;22.17;13.38;;;2.50;99.90;;;;;;6267691;22;20120;-56
2022/03/11 04:36:32;;;;;;;22.60;14.82;;;2.50;99.90;;;;;;6267833;22;20030;-56
2022/03/11 04:38:59;;;;;;;22.95;13.35;;;2.40;99.90;;;;;;6239962;22;20019;-57
2022/03/11 04:41:25;;;;;;;23.13;12.95;;;2.60;99.90;;;;;;6267040;22;20055;-57
2022/03/11 04:43:51;;;;;;;25.80;14.18;;;3.00;99.90;;;;;;6266432;22;20477;-56
2022/03/11 04:46:17;;;;;;;22.83;13.27;;;2.40;99.90;;;;;;6266622;22;20024;-57
2022/03/11 04:48:46;;;;;;;24.67;13.30;;;2.30;99.90;;;;;;6267637;22;20018;-56
2022/03/11 04:51:13;;;;;;;21.83;12.93;;;2.30;99.90;;;;;;6265308;22;20071;-57
2022/03/11 04:53:39;;;;;;;24.80;16.00;;;2.30;99.90;;;;;;6266968;22;20045;-58
2022/03/11 04:56:05;;;;;;;26.23;13.27;;;2.30;99.90;;;;;;6266647;22;20062;-56
2022/03/11 04:58:31;;;;;;;23.55;13.98;;;2.20;99.90;;;;;;6239537;22;20024;-67
2022/03/11 05:00:56;;;;;;;23.27;14.23;;;2.20;99.90;;;;;;6239904;22;20019;-71
2022/03/11 05:03:22;;;;;;;26.92;13.95;;;2.20;99.90;;;;;;6266924;22;20505;-61
2022/03/11 05:05:48;;;;;;;24.27;14.63;;;2.20;99.90;;;;;;6266788;22;20411;-64
2022/03/11 05:08:14;;;;;;;21.98;14.13;;;2.10;99.90;;;;;;6267353;22;20012;-65
2022/03/11 05:10:39;;;;;;;23.33;14.68;;;2.20;99.90;;;;;;6267512;22;20442;-71
2022/03/11 05:13:05;;;;;;;25.38;14.02;;;2.10;99.90;;;;;;6265838;22;20026;-67
2022/03/11 05:15:31;;;;;;;26.17;14.98;;;2.10;99.90;;;;;;6263118;22;20327;-57
2022/03/11 05:17:56;;;;;;;25.70;13.77;;;3.10;99.90;;;;;;6265680;22;20020;-60
2022/03/11 05:20:22;;;;;;;28.75;15.32;;;2.10;99.90;;;;;;6266230;22;20727;-56
2022/03/11 05:22:48;;;;;;;20.83;13.52;;;2.10;99.90;;;;;;6265434;22;20375;-56
2022/03/11 05:25:13;;;;;;;23.27;13.98;;;2.00;99.90;;;;;;6265383;22;20464;-57
2022/03/11 05:27:39;;;;;;;23.40;13.35;;;2.00;99.90;;;;;;6265598;22;20051;-56
2022/03/11 05:30:07;;;;;;;20.60;13.15;;;2.30;99.90;;;;;;6265655;22;20089;-57
2022/03/11 05:32:33;;;;;;;21.95;13.02;;;2.00;99.90;;;;;;6264570;22;20561;-56
2022/03/11 05:34:59;;;;;;;27.08;14.07;;;1.90;99.90;;;;;;6239026;22;20023;-56
2022/03/11 05:37:24;;;;;;;23.13;13.52;;;2.10;99.90;;;;;;6264959;22;20369;-56
2022/03/11 05:39:50;;;;;;;23.08;13.93;;;1.90;99.90;;;;;;6265219;22;20027;-58
2022/03/11 05:42:16;;;;;;;26.55;13.77;;;2.40;99.90;;;;;;6264846;22;20015;-56
2022/03/11 05:44:41;;;;;;;20.70;13.35;;;1.90;99.90;;;;;;6263764;22;20206;-58
2022/03/11 05:47:09;;;;;;;26.13;14.65;;;1.90;99.90;;;;;;6213279;22;20027;-56
2022/03/11 05:49:35;;;;;;;26.40;14.00;;;1.90;99.90;;;;;;6265832;22;20346;-62
2022/03/11 05:52:00;;;;;;;20.77;12.30;;;1.90;99.90;;;;;;6266853;22;20016;-65
2022/03/11 05:54:26;;;;;;;22.02;13.13;;;1.90;99.90;;;;;;6265546;22;20027;-58
2022/03/11 05:56:54;;;;;;;23.00;13.05;;;1.90;99.90;;;;;;6266229;22;20020;-57
2022/03/11 05:59:21;;;;;;;22.92;14.07;;;1.90;99.90;;;;;;6265538;22;20073;-58
2022/03/11 06:01:47;;;;;;;25.42;14.00;;;1.90;99.90;;;;;;6266040;22;20019;-63
2022/03/11 06:04:13;;;;;;;25.38;14.65;;;1.90;99.90;;;;;;6265211;22;20069;-58
2022/03/11 06:06:38;;;;;;;26.75;14.32;;;1.90;99.90;;;;;;6260654;22;20027;-56
2022/03/11 06:09:04;;;;;;;23.00;14.02;;;1.90;99.90;;;;;;6264583;22;20398;-56
2022/03/11 06:11:30;;;;;;;26.88;13.40;;;1.90;99.90;;;;;;6263921;22;20081;-57
2022/03/11 06:13:55;;;;;;;23.85;13.10;;;1.90;99.90;;;;;;6264129;22;20027;-56
2022/03/11 06:16:21;;;;;;;21.50;12.32;;;1.90;99.90;;;;;;6260858;22;20540;-56
2022/03/11 06:18:47;;;;;;;21.45;12.82;;;1.90;99.90;;;;;;6264937;22;20046;-57
2022/03/11 06:21:12;;;;;;;19.40;11.93;;;1.90;99.90;;;;;;6264346;22;20024;-56
2022/03/11 06:23:38;;;;;;;25.33;13.50;;;3.60;99.90;;;;;;6265298;22;20022;-63
2022/03/11 06:26:04;;;;;;;22.17;12.38;;;2.00;99.90;;;;;;6264668;22;20019;-61
2022/03/11 06:28:30;;;;;;;25.00;14.13;;;2.00;99.90;;;;;;6263787;22;20028;-62
2022/03/11 06:30:57;;;;;;;25.60;12.80;;;2.00;99.90;;;;;;6265014;22;20019;-66
2022/03/11 06:33:22;;;;;;;23.65;14.05;;;2.00;99.90;;;;;;6264904;22;20020;-62
2022/03/11 06:35:50;;;;;;;22.67;12.25;;;2.10;99.90;;;;;;6265392;22;20474;-68
2022/03/11 06:38:16;;;;;;;22.60;13.10;;;2.20;99.90;;;;;;6265505;22;20045;-58
2022/03/11 06:40:42;;;;;;;24.17;13.55;;;2.50;99.90;;;;;;6265021;22;20020;-59
2022/03/11 06:43:08;;;;;;;21.95;13.43;;;2.20;99.90;;;;;;6265335;22;20020;-61
2022/03/11 06:45:33;;;;;;;24.08;14.82;;;2.20;99.90;;;;;;6258330;22;20046;-61
2022/03/11 06:47:59;;;;;;;22.65;12.68;;;2.30;99.90;;;;;;6264471;22;20026;-58
2022/03/11 06:50:25;;;;;;;23.13;12.90;;;2.40;99.90;;;;;;6262373;22;20020;-58
2022/03/11 06:52:51;;;;;;;21.60;13.55;;;2.50;99.90;;;;;;6263987;22;20023;-58
2022/03/11 06:55:17;;;;;;;22.35;12.98;;;2.60;99.90;;;;;;6266090;22;20473;-58
2022/03/11 06:57:44;;;;;;;25.98;14.25;;;2.80;99.90;;;;;;6266526;22;20023;-58
2022/03/11 07:00:11;;;;;;;24.35;14.18;;;2.80;99.90;;;;;;6266325;22;20027;-58
2022/03/11 07:02:37;;;;;;;27.17;14.00;;;4.20;99.90;;;;;;6238582;22;20015;-57
2022/03/11 07:05:04;;;;;;;24.48;13.38;;;3.00;99.90;;;;;;6264426;22;20342;-58
2022/03/11 07:07:30;;;;;;;21.58;13.20;;;3.20;99.90;;;;;;6265856;22;20438;-58
2022/03/11 07:09:56;;;;;;;24.45;14.00;;;3.40;99.90;;;;;;6265552;22;20020;-58
2022/03/11 07:12:22;;;;;;;22.00;12.20;;;3.80;99.90;;;;;;6266400;22;20077;-58
2022/03/11 07:14:48;;;;;;;22.23;13.73;;;3.50;99.90;;;;;;6237926;22;20020;-58
2022/03/11 07:17:14;;;;;;;27.13;13.90;;;3.70;99.90;;;;;;6265409;22;20047;-58
2022/03/11 07:19:40;;;;;;;19.58;11.88;;;3.90;99.90;;;;;;6266771;22;20052;-58
2022/03/11 07:22:06;;;;;;;20.02;12.25;;;4.70;99.90;;;;;;6266268;22;20338;-58
2022/03/11 07:24:33;;;;;;;21.88;12.57;;;4.10;99.90;;;;;;6266543;22;20153;-58
2022/03/11 07:26:58;;;;;;;21.80;12.25;;;4.30;99.90;;;;;;6268344;22;20467;-60
2022/03/11 07:29:24;;;;;;;18.60;12.38;;;4.50;99.90;;;;;;6267486;22;20094;-58
2022/03/11 07:31:50;;;;;;;22.25;11.38;;;4.50;99.90;;;;;;6268495;22;20098;-59
2022/03/11 07:34:16;;;;;;;23.55;12.48;;;4.80;99.90;;;;;;6267342;22;20042;-58
2022/03/11 07:36:42;;;;;;;21.38;11.88;;;5.30;99.90;;;;;;6268359;22;20031;-60
2022/03/11 07:39:09;;;;;;;20.70;11.88;;;4.90;99.90;;;;;;6268073;22;20462;-58
2022/03/11 07:41:36;;;;;;;20.75;12.18;;;5.00;99.90;;;;;;6239724;22;20330;-58
2022/03/11 07:44:03;;;;;;;22.10;12.30;;;5.20;99.90;;;;;;6266809;22;20027;-59
2022/03/11 07:46:29;;;;;;;28.13;14.07;;;5.40;99.90;;;;;;6267515;22;20011;-59
2022/03/11 07:48:56;;;;;;;23.42;12.43;;;5.70;99.90;;;;;;6266988;22;20043;-59
2022/03/11 07:51:22;;;;;;;22.02;12.38;;;5.70;99.90;;;;;;6240814;22;20061;-58
2022/03/11 07:53:48;;;;;;;27.17;13.02;;;6.00;99.90;;;;;;6267160;22;20019;-58
2022/03/11 07:56:15;;;;;;;26.70;13.70;;;6.30;99.90;;;;;;6267630;22;20023;-58
2022/03/11 07:58:41;;;;;;;23.88;11.95;;;6.50;99.90;;;;;;6268149;22;20295;-58
2022/03/11 08:01:11;;;;;;;20.38;11.95;;;6.70;99.90;;;;;;6240832;22;20026;-58
2022/03/11 08:03:41;;;;;;;26.38;12.35;;;6.90;99.90;;;;;;6267968;22;20462;-58
2022/03/11 08:06:10;;;;;;;17.50;11.10;;;7.00;99.90;;;;;;6267384;22;20030;-59
2022/03/11 08:08:37;;;;;;;18.25;12.02;;;7.20;99.90;;;;;;6268283;22;20020;-58
2022/03/11 08:11:04;;;;;;;18.92;11.45;;;7.50;99.90;;;;;;6266922;22;20497;-58
2022/03/11 08:13:30;;;;;;;24.63;13.48;;;7.80;99.90;;;;;;6268630;22;20122;-59
2022/03/11 08:15:56;;;;;;;22.35;12.85;;;7.90;99.90;;;;;;6267500;22;20019;-58
2022/03/11 08:18:22;;;;;;;21.33;11.73;;;8.20;99.90;;;;;;6240026;22;20023;-58
2022/03/11 08:20:48;;;;;;;18.73;10.80;;;8.30;99.90;;;;;;6267972;22;20023;-60
2022/03/11 08:23:15;;;;;;;18.50;12.00;;;8.50;99.90;;;;;;6268326;22;20064;-58
2022/03/11 08:25:41;;;;;;;21.67;13.38;;;8.60;99.90;;;;;;6268012;22;20043;-58
2022/03/11 08:28:10;;;;;;;20.50;13.35;;;8.80;99.90;;;;;;6268041;22;20031;-58
2022/03/11 08:30:37;;;;;;;20.38;12.65;;;8.90;99.90;;;;;;6264433;22;20024;-58
2022/03/11 08:33:04;;;;;;;16.83;11.05;;;9.00;99.90;;;;;;6266707;22;20023;-58
2022/03/11 08:35:30;;;;;;;17.70;11.70;;;9.10;99.90;;;;;;6266413;22;20391;-59
2022/03/11 08:37:57;;;;;;;20.55;11.75;;;9.20;99.90;;;;;;6268949;22;20019;-58
2022/03/11 08:40:24;;;;;;;20.38;11.60;;;9.20;99.90;;;;;;6268597;22;20355;-58
2022/03/11 08:42:51;;;;;;;18.80;12.43;;;9.40;99.90;;;;;;6269038;22;20065;-58
2022/03/11 08:45:20;;;;;;;23.67;13.25;;;9.30;99.90;;;;;;6268613;22;20094;-58
2022/03/11 08:47:46;;;;;;;21.63;12.65;;;9.40;99.90;;;;;;6268862;22;20086;-62
2022/03/11 08:50:12;;;;;;;19.73;11.57;;;9.40;99.90;;;;;;6236771;22;20034;-58
2022/03/11 08:52:37;;;;;;;19.05;11.38;;;9.50;99.90;;;;;;6267710;22;20027;-67
2022/03/11 08:55:04;;;;;;;21.48;11.88;;;9.70;99.90;;;;;;6268079;22;20023;-64
2022/03/11 08:57:30;;;;;;;19.13;11.13;;;9.80;99.90;;;;;;6266360;22;20023;-63
2022/03/11 08:59:55;;;;;;;17.80;10.80;;;9.90;99.90;;;;;;6268172;22;20481;-67
2022/03/11 09:02:23;;;;;;;22.20;13.10;;;10.10;99.90;;;;;;6268204;22;20030;-62
2022/03/11 09:04:49;;;;;;;20.10;12.13;;;10.30;99.90;;;;;;6268246;22;20464;-66
2022/03/11 09:07:15;;;;;;;20.35;12.65;;;10.60;99.90;;;;;;6238251;22;20020;-58
2022/03/11 09:09:41;;;;;;;17.98;10.23;;;10.80;99.90;;;;;;6268074;22;20126;-58
2022/03/11 09:12:07;;;;;;;22.95;12.85;;;11.00;99.10;;;;;;6267264;22;20054;-59
2022/03/11 09:14:33;;;;;;;19.52;12.25;;;11.40;99.60;;;;;;6264070;22;20019;-58
2022/03/11 09:17:00;;;;;;;18.30;12.25;;;11.70;98.70;;;;;;6238505;22;20019;-57
2022/03/11 09:19:25;;;;;;;18.65;12.30;;;12.00;98.70;;;;;;6267644;22;20026;-56
2022/03/11 09:21:51;;;;;;;19.15;12.18;;;12.30;98.20;;;;;;6266385;22;20020;-60
2022/03/11 09:24:17;;;;;;;17.20;11.43;;;12.50;97.90;;;;;;6267145;22;20395;-56
2022/03/11 09:26:49;;;;;;;20.00;12.50;;;12.90;97.50;;;;;;6267003;22;20019;-58
2022/03/11 09:29:15;;;;;;;18.05;12.02;;;13.00;97.30;;;;;;6238115;22;20020;-63
2022/03/11 09:31:40;;;;;;;21.63;12.18;;;13.20;96.90;;;;;;6239508;22;20039;-57
2022/03/11 09:34:06;;;;;;;17.15;12.02;;;13.60;96.50;;;;;;6266463;22;20016;-57
2022/03/11 09:36:32;;;;;;;19.25;12.10;;;13.60;96.00;;;;;;6265983;22;20322;-64
2022/03/11 09:38:57;;;;;;;25.20;13.32;;;13.70;95.80;;;;;;6266565;22;20133;-61
2022/03/11 09:41:27;;;;;;;19.33;12.43;;;13.80;95.40;;;;;;6265114;22;20446;-58
2022/03/11 09:43:55;;;;;;;16.65;11.48;;;14.10;94.80;;;;;;6237829;22;20094;-58
2022/03/11 09:46:22;;;;;;;16.58;12.23;;;14.20;94.40;;;;;;6265788;22;20019;-56
2022/03/11 09:48:48;;;;;;;15.57;12.30;;;14.30;94.50;;;;;;6267352;22;20019;-56
2022/03/11 09:51:15;;;;;;;16.13;11.43;;;14.70;94.40;;;;;;6265852;22;20458;-58
2022/03/11 09:53:42;;;;;;;15.23;10.88;;;14.90;93.90;;;;;;6266992;22;20019;-56
2022/03/11 09:56:08;;;;;;;16.40;10.93;;;15.00;93.80;;;;;;6265819;22;20091;-56
2022/03/11 09:58:34;;;;;;;18.13;12.35;;;15.20;93.20;;;;;;6266342;22;20094;-56
2022/03/11 10:01:00;;;;;;;20.02;12.02;;;15.40;92.60;;;;;;6267024;22;20024;-55
2022/03/11 10:03:29;;;;;;;18.75;11.60;;;15.30;92.40;;;;;;6266510;22;20022;-60
2022/03/11 10:05:55;;;;;;;18.05;11.82;;;15.60;92.00;;;;;;6266614;22;20020;-60
2022/03/11 10:08:33;;;;;;;16.27;10.65;;;15.70;91.50;;;;;;6265583;22;20019;-58
2022/03/11 10:11:23;;;;;;;16.08;10.95;;;15.70;90.10;;;;;;6265513;22;20473;-56
2022/03/11 10:13:52;;;;;;;17.30;11.82;;;16.00;88.10;;;;;;6266680;22;20024;-56
2022/03/11 10:16:25;;;;;;;17.00;12.23;;;16.00;90.60;;;;;;6266461;22;20575;-55
2022/03/11 10:18:56;;;;;;;15.73;11.00;;;16.20;89.40;;;;;;6265911;22;20015;-56
2022/03/11 10:21:55;;;;;;;16.63;12.23;;;16.30;89.00;;;;;;6265860;22;20030;-56
2022/03/11 10:24:21;;;;;;;15.75;10.85;;;16.20;84.50;;;;;;6243161;22;20346;-56
2022/03/11 10:26:52;;;;;;;16.35;11.40;;;16.30;88.80;;;;;;6262103;22;20454;-56
2022/03/11 10:29:24;;;;;;;15.27;10.98;;;16.30;87.60;;;;;;6213162;22;20458;-57
2022/03/11 10:31:52;;;;;;;16.42;11.25;;;16.30;87.20;;;;;;6266232;22;20425;-57
2022/03/11 10:34:26;;;;;;;16.70;11.70;;;16.40;86.40;;;;;;6266149;22;20020;-56
2022/03/11 10:36:56;;;;;;;;;;;16.50;85.10;;;;;;6265346;22;20099;-56
2022/03/11 10:39:29;;;;;;;16.75;10.23;;;16.40;81.60;;;;;;6265091;22;20322;-57
2022/03/11 10:42:19;;;;;;;14.10;9.77;;;16.20;83.20;;;;;;6237654;22;20044;-57
2022/03/11 10:45:13;;;;;;;15.82;10.57;;;16.40;84.10;;;;;;6265160;22;20023;-56
2022/03/11 10:47:41;;;;;;;17.50;11.02;;;16.50;82.00;;;;;;6261270;22;20023;-56
2022/03/11 10:50:11;;;;;;;14.95;10.30;;;16.50;84.90;;;;;;6265678;22;20016;-57
2022/03/11 10:52:48;;;;;;;16.92;10.98;;;16.80;84.90;;;;;;6265074;22;20020;-56
2022/03/11 10:55:29;;;;;;;16.02;11.65;;;16.90;82.60;;;;;;6265372;22;20023;-56
2022/03/11 10:57:59;;;;;;;15.93;11.20;;;16.80;81.50;;;;;;6265105;22;20016;-56
2022/03/11 11:00:26;;;;;;;18.20;11.63;;;16.60;82.30;;;;;;6268231;22;20019;-56
2022/03/11 11:02:57;;;;;;;15.02;10.32;;;16.70;83.10;;;;;;6267294;22;20023;-56
2022/03/11 11:05:24;;;;;;;17.13;10.65;;;16.50;83.20;;;;;;6267902;22;20028;-56
2022/03/11 11:07:51;;;;;;;14.65;10.93;;;16.50;82.60;;;;;;6267495;22;20277;-56
2022/03/11 11:10:18;;;;;;;16.58;10.88;;;16.70;82.20;;;;;;6268428;22;20473;-57
2022/03/11 11:12:45;;;;;;;18.00;11.00;;;16.70;80.20;;;;;;6267815;22;20026;-57
2022/03/11 11:15:12;;;;;;;12.77;9.88;;;16.70;82.00;;;;;;6267435;22;20023;-57
2022/03/11 11:17:39;;;;;;;18.58;11.18;;;16.70;82.40;;;;;;6266749;22;20193;-57
2022/03/11 11:20:32;;;;;;;15.43;10.68;;;16.90;80.80;;;;;;6268592;22;20098;-56
2022/03/11 11:23:02;;;;;;;13.82;10.05;;;17.10;79.30;;;;;;6266821;22;20016;-56
2022/03/11 11:25:29;;;;;;;14.23;9.50;;;17.10;80.10;;;;;;6264786;22;20026;-57
2022/03/11 11:27:57;;;;;;;14.98;10.90;;;17.30;80.40;;;;;;6264346;22;20020;-56
2022/03/11 11:30:25;;;;;;;15.40;10.52;;;17.10;80.20;;;;;;6263195;22;20450;-56
2022/03/11 11:32:55;;;;;;;17.70;9.52;;;17.20;79.70;;;;;;6260878;22;20051;-58
2022/03/11 11:35:32;;;;;;;16.13;10.23;;;17.20;79.80;;;;;;6264272;22;20023;-57
2022/03/11 11:38:03;;;;;;;14.73;10.00;;;17.30;78.90;;;;;;6264320;22;20015;-59
2022/03/11 11:40:39;;;;;;;15.65;9.77;;;17.40;79.30;;;;;;6264854;22;20023;-57
2022/03/11 11:43:14;;;;;;;14.85;10.57;;;17.80;77.70;;;;;;6264292;22;20556;-59
2022/03/11 11:45:51;;;;;;;15.60;10.35;;;18.00;76.40;;;;;;6263796;22;20035;-57
2022/03/11 11:48:41;;;;;;;13.15;9.98;;;18.30;76.70;;;;;;6264258;22;20269;-59
2022/03/11 11:51:08;;;;;;;17.58;10.50;;;18.90;74.80;;;;;;6264197;22;20028;-59
2022/03/11 11:53:56;;;;;;;13.02;10.50;;;19.70;78.20;;;;;;6264946;22;20467;-60
2022/03/11 11:57:02;;;;;;;14.13;10.50;;;21.00;73.40;;;;;;6266101;22;20027;-60
2022/03/11 11:59:32;;;;;;;15.43;10.10;;;23.60;69.90;;;;;;6212540;22;20233;-57
2022/03/11 12:02:01;;;;;;;12.73;9.20;;;25.40;69.00;;;;;;6265895;22;20018;-58
2022/03/11 12:04:39;;;;;;;10.88;9.00;;;26.90;65.10;;;;;;6265546;22;20521;-60
2022/03/11 12:07:09;;;;;;;13.65;10.05;;;28.20;60.80;;;;;;6238615;22;20019;-60
2022/03/11 12:09:40;;;;;;;12.40;9.00;;;28.70;60.70;;;;;;6265318;22;20136;-62
2022/03/11 12:12:07;;;;;;;11.85;9.02;;;28.60;58.10;;;;;;6264316;22;20081;-57
2022/03/11 12:14:53;;;;;;;11.65;9.63;;;28.90;57.50;;;;;;6265525;22;20351;-59
2022/03/11 12:17:38;;;;;;;10.45;8.95;;;30.00;56.30;;;;;;6264803;22;20091;-57
2022/03/11 12:20:32;;;;;;;12.27;8.75;;;29.70;52.90;;;;;;6237887;22;20064;-61
2022/03/11 12:23:00;;;;;;;10.73;8.75;;;30.10;52.30;;;;;;6264859;22;20023;-57
2022/03/11 12:25:29;;;;;;;11.05;9.05;;;30.10;53.00;;;;;;6265112;22;20016;-58
2022/03/11 12:28:07;;;;;;;10.57;8.75;;;31.00;52.20;;;;;;6237906;22;20341;-57
2022/03/11 12:30:41;;;;;;;10.38;8.98;;;30.00;49.50;;;;;;6238299;22;20070;-57
2022/03/11 12:33:10;;;;;;;12.70;9.05;;;30.60;50.20;;;;;;6237910;22;20030;-59
2022/03/11 12:35:37;;;;;;;12.35;8.95;;;30.40;50.10;;;;;;6265825;22;20016;-57
2022/03/11 12:38:04;;;;;;;14.93;9.32;;;30.10;50.60;;;;;;6264781;22;20027;-57
2022/03/11 12:40:31;;;;;;;12.27;9.43;;;30.00;49.40;;;;;;6264098;22;20833;-58